sensor_id;sensor_type;location;lat;lon;timestamp;P1;durP1;ratioP1;P2;durP2;ratioP2
71610;SDS011;59459;51.172;6.682;2022-12-07T00:02:10;34.13;;;17.67;;
71610;SDS011;59459;51.172;6.682;2022-12-07T00:04:36;35.97;;;17.33;;
71610;SDS011;59459;51.172;6.682;2022-12-07T00:07:01;31.87;;;17.03;;
71610;SDS011;59459;51.172;6.682;2022-12-07T00:09:27;34.43;;;17.17;;
71610;SDS011;59459;51.172;6.682;2022-12-07T00:11:52;31.70;;;16.43;;
71610;SDS011;59459;51.172;6.682;2022-12-07T00:14:18;35.33;;;16.77;;
71610;SDS011;59459;51.172;6.682;2022-12-07T00:16:43;34.72;;;17.17;;
71610;SDS011;59459;51.172;6.682;2022-12-07T00:19:10;32.37;;;16.87;;
71610;SDS011;59459;51.172;6.682;2022-12-07T00:21:35;31.10;;;15.68;;
71610;SDS011;59459;51.172;6.682;2022-12-07T00:24:01;31.33;;;16.10;;
71610;SDS011;59459;51.172;6.682;2022-12-07T00:26:27;38.25;;;18.55;;
71610;SDS011;59459;51.172;6.682;2022-12-07T00:28:54;33.22;;;16.35;;
71610;SDS011;59459;51.172;6.682;2022-12-07T00:31:20;33.85;;;17.80;;
71610;SDS011;59459;51.172;6.682;2022-12-07T00:33:46;30.43;;;16.80;;
71610;SDS011;59459;51.172;6.682;2022-12-07T00:36:12;30.87;;;16.30;;
71610;SDS011;59459;51.172;6.682;2022-12-07T00:38:38;34.50;;;16.73;;
71610;SDS011;59459;51.172;6.682;2022-12-07T00:41:08;29.42;;;16.13;;
71610;SDS011;59459;51.172;6.682;2022-12-07T00:43:34;34.67;;;16.98;;
71610;SDS011;59459;51.172;6.682;2022-12-07T00:45:59;34.10;;;16.90;;
71610;SDS011;59459;51.172;6.682;2022-12-07T00:48:24;34.20;;;16.10;;
71610;SDS011;59459;51.172;6.682;2022-12-07T00:50:50;28.73;;;15.10;;
71610;SDS011;59459;51.172;6.682;2022-12-07T00:53:15;32.97;;;15.57;;
71610;SDS011;59459;51.172;6.682;2022-12-07T00:55:41;33.60;;;16.20;;
71610;SDS011;59459;51.172;6.682;2022-12-07T00:58:06;34.50;;;17.63;;
71610;SDS011;59459;51.172;6.682;2022-12-07T01:00:32;34.57;;;17.37;;
71610;SDS011;59459;51.172;6.682;2022-12-07T01:02:57;30.77;;;16.25;;
71610;SDS011;59459;51.172;6.682;2022-12-07T01:05:23;33.03;;;16.93;;
71610;SDS011;59459;51.172;6.682;2022-12-07T01:07:48;31.97;;;16.87;;
71610;SDS011;59459;51.172;6.682;2022-12-07T01:10:13;35.43;;;17.97;;
71610;SDS011;59459;51.172;6.682;2022-12-07T01:12:39;33.63;;;17.77;;
71610;SDS011;59459;51.172;6.682;2022-12-07T01:15:04;35.03;;;17.85;;
71610;SDS011;59459;51.172;6.682;2022-12-07T01:17:30;35.07;;;17.87;;
71610;SDS011;59459;51.172;6.682;2022-12-07T01:19:55;36.83;;;19.53;;
71610;SDS011;59459;51.172;6.682;2022-12-07T01:22:20;36.67;;;19.63;;
71610;SDS011;59459;51.172;6.682;2022-12-07T01:24:45;35.03;;;18.60;;
71610;SDS011;59459;51.172;6.682;2022-12-07T01:27:11;40.10;;;21.00;;
71610;SDS011;59459;51.172;6.682;2022-12-07T01:29:37;37.17;;;18.67;;
71610;SDS011;59459;51.172;6.682;2022-12-07T01:32:02;41.20;;;19.33;;
71610;SDS011;59459;51.172;6.682;2022-12-07T01:34:27;41.87;;;19.70;;
71610;SDS011;59459;51.172;6.682;2022-12-07T01:36:52;41.70;;;19.23;;
71610;SDS011;59459;51.172;6.682;2022-12-07T01:39:26;45.53;;;21.17;;
71610;SDS011;59459;51.172;6.682;2022-12-07T01:41:52;38.30;;;19.27;;
71610;SDS011;59459;51.172;6.682;2022-12-07T01:44:21;40.00;;;19.92;;
71610;SDS011;59459;51.172;6.682;2022-12-07T01:46:48;37.03;;;18.48;;
71610;SDS011;59459;51.172;6.682;2022-12-07T01:51:45;38.53;;;18.73;;
71610;SDS011;59459;51.172;6.682;2022-12-07T01:54:11;37.33;;;18.52;;
71610;SDS011;59459;51.172;6.682;2022-12-07T01:56:37;37.53;;;19.27;;
71610;SDS011;59459;51.172;6.682;2022-12-07T01:59:04;39.05;;;19.02;;
71610;SDS011;59459;51.172;6.682;2022-12-07T02:01:29;37.50;;;19.40;;
71610;SDS011;59459;51.172;6.682;2022-12-07T02:03:55;38.07;;;18.97;;
71610;SDS011;59459;51.172;6.682;2022-12-07T02:06:21;38.83;;;19.30;;
71610;SDS011;59459;51.172;6.682;2022-12-07T02:08:47;36.08;;;18.02;;
71610;SDS011;59459;51.172;6.682;2022-12-07T02:11:13;38.93;;;19.20;;
71610;SDS011;59459;51.172;6.682;2022-12-07T02:13:39;37.28;;;18.52;;
71610;SDS011;59459;51.172;6.682;2022-12-07T02:26:29;35.43;;;18.90;;
71610;SDS011;59459;51.172;6.682;2022-12-07T02:31:29;37.53;;;18.10;;
71610;SDS011;59459;51.172;6.682;2022-12-07T02:34:34;36.63;;;19.25;;
71610;SDS011;59459;51.172;6.682;2022-12-07T02:36:50;39.55;;;18.90;;
71610;SDS011;59459;51.172;6.682;2022-12-07T02:39:22;38.97;;;19.73;;
71610;SDS011;59459;51.172;6.682;2022-12-07T02:41:51;37.97;;;19.08;;
71610;SDS011;59459;51.172;6.682;2022-12-07T02:44:18;35.57;;;18.43;;
71610;SDS011;59459;51.172;6.682;2022-12-07T02:46:47;34.63;;;18.05;;
71610;SDS011;59459;51.172;6.682;2022-12-07T02:49:14;35.78;;;19.13;;
71610;SDS011;59459;51.172;6.682;2022-12-07T02:51:40;37.70;;;18.07;;
71610;SDS011;59459;51.172;6.682;2022-12-07T02:54:16;34.13;;;17.48;;
71610;SDS011;59459;51.172;6.682;2022-12-07T02:59:25;33.10;;;16.67;;
71610;SDS011;59459;51.172;6.682;2022-12-07T03:06:58;32.65;;;16.35;;
71610;SDS011;59459;51.172;6.682;2022-12-07T03:09:32;35.03;;;17.25;;
71610;SDS011;59459;51.172;6.682;2022-12-07T03:12:01;33.10;;;17.20;;
71610;SDS011;59459;51.172;6.682;2022-12-07T03:14:31;33.93;;;16.27;;
71610;SDS011;59459;51.172;6.682;2022-12-07T03:17:01;31.20;;;16.65;;
71610;SDS011;59459;51.172;6.682;2022-12-07T03:19:27;32.90;;;15.35;;
71610;SDS011;59459;51.172;6.682;2022-12-07T03:21:59;31.55;;;15.00;;
71610;SDS011;59459;51.172;6.682;2022-12-07T03:27:11;33.60;;;15.93;;
71610;SDS011;59459;51.172;6.682;2022-12-07T03:29:40;30.98;;;15.75;;
71610;SDS011;59459;51.172;6.682;2022-12-07T03:32:13;29.02;;;14.77;;
71610;SDS011;59459;51.172;6.682;2022-12-07T03:34:41;31.90;;;16.15;;
71610;SDS011;59459;51.172;6.682;2022-12-07T03:37:15;28.20;;;16.00;;
71610;SDS011;59459;51.172;6.682;2022-12-07T03:39:46;27.87;;;13.90;;
71610;SDS011;59459;51.172;6.682;2022-12-07T03:42:15;30.33;;;15.18;;
71610;SDS011;59459;51.172;6.682;2022-12-07T03:44:40;31.73;;;14.93;;
71610;SDS011;59459;51.172;6.682;2022-12-07T03:48:07;29.50;;;14.88;;
71610;SDS011;59459;51.172;6.682;2022-12-07T03:50:09;33.30;;;15.45;;
71610;SDS011;59459;51.172;6.682;2022-12-07T03:52:39;27.70;;;15.13;;
71610;SDS011;59459;51.172;6.682;2022-12-07T03:55:09;31.67;;;15.80;;
71610;SDS011;59459;51.172;6.682;2022-12-07T03:57:35;29.47;;;14.67;;
71610;SDS011;59459;51.172;6.682;2022-12-07T04:00:03;29.65;;;14.85;;
71610;SDS011;59459;51.172;6.682;2022-12-07T04:02:29;28.30;;;15.40;;
71610;SDS011;59459;51.172;6.682;2022-12-07T04:04:54;28.53;;;14.57;;
71610;SDS011;59459;51.172;6.682;2022-12-07T04:07:20;28.83;;;15.93;;
71610;SDS011;59459;51.172;6.682;2022-12-07T04:09:45;31.30;;;14.93;;
71610;SDS011;59459;51.172;6.682;2022-12-07T04:12:10;26.80;;;14.17;;
71610;SDS011;59459;51.172;6.682;2022-12-07T04:14:35;25.67;;;14.33;;
71610;SDS011;59459;51.172;6.682;2022-12-07T04:17:01;27.83;;;14.23;;
71610;SDS011;59459;51.172;6.682;2022-12-07T04:19:27;26.77;;;13.10;;
71610;SDS011;59459;51.172;6.682;2022-12-07T04:21:53;24.33;;;13.68;;
71610;SDS011;59459;51.172;6.682;2022-12-07T04:24:18;28.33;;;14.03;;
71610;SDS011;59459;51.172;6.682;2022-12-07T04:26:44;27.30;;;14.47;;
71610;SDS011;59459;51.172;6.682;2022-12-07T04:29:09;28.50;;;14.03;;
71610;SDS011;59459;51.172;6.682;2022-12-07T04:31:35;28.17;;;14.40;;
71610;SDS011;59459;51.172;6.682;2022-12-07T04:34:01;27.57;;;14.57;;
71610;SDS011;59459;51.172;6.682;2022-12-07T04:36:26;26.27;;;14.37;;
71610;SDS011;59459;51.172;6.682;2022-12-07T04:38:52;25.38;;;13.40;;
71610;SDS011;59459;51.172;6.682;2022-12-07T04:41:18;26.50;;;12.83;;
71610;SDS011;59459;51.172;6.682;2022-12-07T04:43:43;30.43;;;14.27;;
71610;SDS011;59459;51.172;6.682;2022-12-07T04:46:08;23.03;;;12.33;;
71610;SDS011;59459;51.172;6.682;2022-12-07T04:48:36;25.33;;;12.60;;
71610;SDS011;59459;51.172;6.682;2022-12-07T04:51:02;24.63;;;12.50;;
71610;SDS011;59459;51.172;6.682;2022-12-07T04:53:27;28.30;;;13.23;;
71610;SDS011;59459;51.172;6.682;2022-12-07T04:55:53;24.53;;;12.30;;
71610;SDS011;59459;51.172;6.682;2022-12-07T04:58:18;27.43;;;12.40;;
71610;SDS011;59459;51.172;6.682;2022-12-07T05:00:43;22.73;;;12.40;;
71610;SDS011;59459;51.172;6.682;2022-12-07T05:03:08;26.23;;;12.80;;
71610;SDS011;59459;51.172;6.682;2022-12-07T05:05:34;21.60;;;12.40;;
71610;SDS011;59459;51.172;6.682;2022-12-07T05:07:59;23.73;;;11.87;;
71610;SDS011;59459;51.172;6.682;2022-12-07T05:10:24;20.90;;;11.23;;
71610;SDS011;59459;51.172;6.682;2022-12-07T05:12:49;22.40;;;12.00;;
71610;SDS011;59459;51.172;6.682;2022-12-07T05:15:14;26.00;;;12.13;;
71610;SDS011;59459;51.172;6.682;2022-12-07T05:17:40;21.08;;;10.95;;
71610;SDS011;59459;51.172;6.682;2022-12-07T05:20:06;22.93;;;12.30;;
71610;SDS011;59459;51.172;6.682;2022-12-07T05:22:31;21.00;;;12.03;;
71610;SDS011;59459;51.172;6.682;2022-12-07T05:24:56;20.10;;;10.37;;
71610;SDS011;59459;51.172;6.682;2022-12-07T05:27:22;20.27;;;10.90;;
71610;SDS011;59459;51.172;6.682;2022-12-07T05:29:47;20.63;;;10.97;;
71610;SDS011;59459;51.172;6.682;2022-12-07T05:32:12;20.07;;;10.57;;
71610;SDS011;59459;51.172;6.682;2022-12-07T05:34:37;22.10;;;12.37;;
71610;SDS011;59459;51.172;6.682;2022-12-07T05:37:03;24.47;;;12.63;;
71610;SDS011;59459;51.172;6.682;2022-12-07T05:39:28;23.00;;;10.50;;
71610;SDS011;59459;51.172;6.682;2022-12-07T05:41:53;20.60;;;11.97;;
71610;SDS011;59459;51.172;6.682;2022-12-07T05:44:37;19.27;;;10.38;;
71610;SDS011;59459;51.172;6.682;2022-12-07T05:47:02;21.30;;;10.30;;
71610;SDS011;59459;51.172;6.682;2022-12-07T05:49:27;21.33;;;11.43;;
71610;SDS011;59459;51.172;6.682;2022-12-07T05:51:53;21.70;;;10.37;;
71610;SDS011;59459;51.172;6.682;2022-12-07T05:54:18;23.33;;;11.02;;
71610;SDS011;59459;51.172;6.682;2022-12-07T05:56:43;21.87;;;10.17;;
71610;SDS011;59459;51.172;6.682;2022-12-07T05:59:08;20.20;;;11.80;;
71610;SDS011;59459;51.172;6.682;2022-12-07T06:04:14;23.70;;;10.50;;
71610;SDS011;59459;51.172;6.682;2022-12-07T06:06:39;21.97;;;10.67;;
71610;SDS011;59459;51.172;6.682;2022-12-07T06:09:05;20.77;;;10.03;;
71610;SDS011;59459;51.172;6.682;2022-12-07T06:11:30;18.40;;;9.63;;
71610;SDS011;59459;51.172;6.682;2022-12-07T06:14:14;23.83;;;10.63;;
71610;SDS011;59459;51.172;6.682;2022-12-07T06:16:39;20.43;;;11.37;;
71610;SDS011;59459;51.172;6.682;2022-12-07T06:19:05;19.87;;;11.17;;
71610;SDS011;59459;51.172;6.682;2022-12-07T06:21:30;21.50;;;10.10;;
71610;SDS011;59459;51.172;6.682;2022-12-07T06:23:55;19.60;;;10.43;;
71610;SDS011;59459;51.172;6.682;2022-12-07T06:26:21;22.23;;;10.23;;
71610;SDS011;59459;51.172;6.682;2022-12-07T06:28:49;22.08;;;11.07;;
71610;SDS011;59459;51.172;6.682;2022-12-07T06:31:14;19.87;;;10.03;;
71610;SDS011;59459;51.172;6.682;2022-12-07T06:33:40;20.73;;;10.07;;
71610;SDS011;59459;51.172;6.682;2022-12-07T06:36:05;21.02;;;10.07;;
71610;SDS011;59459;51.172;6.682;2022-12-07T06:38:31;22.87;;;10.67;;
71610;SDS011;59459;51.172;6.682;2022-12-07T06:40:56;19.20;;;10.30;;
71610;SDS011;59459;51.172;6.682;2022-12-07T06:43:21;22.47;;;10.30;;
71610;SDS011;59459;51.172;6.682;2022-12-07T06:45:47;20.90;;;9.97;;
71610;SDS011;59459;51.172;6.682;2022-12-07T06:48:12;20.97;;;10.70;;
71610;SDS011;59459;51.172;6.682;2022-12-07T06:50:37;21.33;;;9.53;;
71610;SDS011;59459;51.172;6.682;2022-12-07T06:53:02;21.77;;;9.70;;
71610;SDS011;59459;51.172;6.682;2022-12-07T06:55:28;25.50;;;10.97;;
71610;SDS011;59459;51.172;6.682;2022-12-07T06:57:53;20.80;;;11.03;;
71610;SDS011;59459;51.172;6.682;2022-12-07T07:00:18;25.30;;;10.20;;
71610;SDS011;59459;51.172;6.682;2022-12-07T07:02:43;20.97;;;10.93;;
71610;SDS011;59459;51.172;6.682;2022-12-07T07:05:09;19.83;;;10.67;;
71610;SDS011;59459;51.172;6.682;2022-12-07T07:07:34;20.60;;;10.43;;
71610;SDS011;59459;51.172;6.682;2022-12-07T07:09:59;18.10;;;9.67;;
71610;SDS011;59459;51.172;6.682;2022-12-07T07:12:25;19.03;;;10.13;;
71610;SDS011;59459;51.172;6.682;2022-12-07T07:14:50;21.93;;;10.20;;
71610;SDS011;59459;51.172;6.682;2022-12-07T07:17:15;25.40;;;10.67;;
71610;SDS011;59459;51.172;6.682;2022-12-07T07:19:40;19.30;;;9.70;;
71610;SDS011;59459;51.172;6.682;2022-12-07T07:22:06;17.87;;;9.23;;
71610;SDS011;59459;51.172;6.682;2022-12-07T07:24:31;20.27;;;11.13;;
71610;SDS011;59459;51.172;6.682;2022-12-07T07:26:56;19.13;;;9.73;;
71610;SDS011;59459;51.172;6.682;2022-12-07T07:29:21;23.43;;;10.67;;
71610;SDS011;59459;51.172;6.682;2022-12-07T07:31:47;20.50;;;9.73;;
71610;SDS011;59459;51.172;6.682;2022-12-07T07:34:12;18.00;;;9.93;;
71610;SDS011;59459;51.172;6.682;2022-12-07T07:36:37;19.67;;;9.33;;
71610;SDS011;59459;51.172;6.682;2022-12-07T07:39:02;20.53;;;10.57;;
71610;SDS011;59459;51.172;6.682;2022-12-07T07:41:28;18.40;;;9.47;;
71610;SDS011;59459;51.172;6.682;2022-12-07T07:43:53;19.17;;;9.10;;
71610;SDS011;59459;51.172;6.682;2022-12-07T07:46:18;18.30;;;9.53;;
71610;SDS011;59459;51.172;6.682;2022-12-07T07:48:43;21.67;;;9.03;;
71610;SDS011;59459;51.172;6.682;2022-12-07T07:51:09;16.50;;;8.83;;
71610;SDS011;59459;51.172;6.682;2022-12-07T07:53:34;18.27;;;9.50;;
71610;SDS011;59459;51.172;6.682;2022-12-07T07:55:59;19.17;;;8.23;;
71610;SDS011;59459;51.172;6.682;2022-12-07T07:58:24;17.33;;;9.60;;
71610;SDS011;59459;51.172;6.682;2022-12-07T08:00:50;17.50;;;8.53;;
71610;SDS011;59459;51.172;6.682;2022-12-07T08:03:16;19.30;;;9.63;;
71610;SDS011;59459;51.172;6.682;2022-12-07T08:05:41;16.38;;;9.20;;
71610;SDS011;59459;51.172;6.682;2022-12-07T08:08:06;18.00;;;8.67;;
71610;SDS011;59459;51.172;6.682;2022-12-07T08:10:31;18.93;;;9.70;;
71610;SDS011;59459;51.172;6.682;2022-12-07T08:12:57;18.17;;;9.00;;
71610;SDS011;59459;51.172;6.682;2022-12-07T08:15:41;19.67;;;10.68;;
71610;SDS011;59459;51.172;6.682;2022-12-07T08:18:07;18.30;;;10.10;;
71610;SDS011;59459;51.172;6.682;2022-12-07T08:20:33;21.67;;;10.73;;
71610;SDS011;59459;51.172;6.682;2022-12-07T08:22:59;20.77;;;11.18;;
71610;SDS011;59459;51.172;6.682;2022-12-07T08:25:24;24.67;;;10.70;;
71610;SDS011;59459;51.172;6.682;2022-12-07T08:27:51;23.30;;;12.18;;
71610;SDS011;59459;51.172;6.682;2022-12-07T08:30:16;27.60;;;11.23;;
71610;SDS011;59459;51.172;6.682;2022-12-07T08:32:41;22.35;;;11.63;;
71610;SDS011;59459;51.172;6.682;2022-12-07T08:35:08;22.97;;;11.30;;
71610;SDS011;59459;51.172;6.682;2022-12-07T08:37:34;24.63;;;12.03;;
71610;SDS011;59459;51.172;6.682;2022-12-07T08:39:59;26.60;;;12.43;;
71610;SDS011;59459;51.172;6.682;2022-12-07T08:42:26;24.73;;;11.47;;
71610;SDS011;59459;51.172;6.682;2022-12-07T08:44:55;23.10;;;12.15;;
71610;SDS011;59459;51.172;6.682;2022-12-07T08:47:20;23.57;;;12.77;;
71610;SDS011;59459;51.172;6.682;2022-12-07T08:49:46;23.23;;;12.37;;
71610;SDS011;59459;51.172;6.682;2022-12-07T08:52:12;27.27;;;12.52;;
71610;SDS011;59459;51.172;6.682;2022-12-07T08:54:38;25.73;;;12.07;;
71610;SDS011;59459;51.172;6.682;2022-12-07T08:57:04;25.35;;;13.18;;
71610;SDS011;59459;51.172;6.682;2022-12-07T08:59:29;25.80;;;12.60;;
71610;SDS011;59459;51.172;6.682;2022-12-07T09:01:55;25.88;;;13.05;;
71610;SDS011;59459;51.172;6.682;2022-12-07T09:04:23;24.90;;;13.27;;
71610;SDS011;59459;51.172;6.682;2022-12-07T09:06:52;28.27;;;13.23;;
71610;SDS011;59459;51.172;6.682;2022-12-07T09:09:27;28.35;;;13.55;;
71610;SDS011;59459;51.172;6.682;2022-12-07T09:11:53;24.45;;;12.70;;
71610;SDS011;59459;51.172;6.682;2022-12-07T09:14:22;25.20;;;12.20;;
71610;SDS011;59459;51.172;6.682;2022-12-07T09:16:49;23.98;;;12.00;;
71610;SDS011;59459;51.172;6.682;2022-12-07T09:19:15;24.80;;;11.43;;
71610;SDS011;59459;51.172;6.682;2022-12-07T09:21:40;26.30;;;12.65;;
71610;SDS011;59459;51.172;6.682;2022-12-07T09:24:06;23.60;;;11.73;;
71610;SDS011;59459;51.172;6.682;2022-12-07T09:26:32;22.00;;;11.05;;
71610;SDS011;59459;51.172;6.682;2022-12-07T09:28:57;23.63;;;11.27;;
71610;SDS011;59459;51.172;6.682;2022-12-07T09:31:22;25.97;;;11.40;;
71610;SDS011;59459;51.172;6.682;2022-12-07T09:33:52;23.27;;;11.87;;
71610;SDS011;59459;51.172;6.682;2022-12-07T09:36:17;22.17;;;11.52;;
71610;SDS011;59459;51.172;6.682;2022-12-07T09:38:43;23.40;;;11.70;;
71610;SDS011;59459;51.172;6.682;2022-12-07T09:41:08;26.10;;;11.63;;
71610;SDS011;59459;51.172;6.682;2022-12-07T09:43:34;22.40;;;11.57;;
71610;SDS011;59459;51.172;6.682;2022-12-07T09:45:59;23.48;;;10.60;;
71610;SDS011;59459;51.172;6.682;2022-12-07T09:48:30;21.37;;;9.63;;
71610;SDS011;59459;51.172;6.682;2022-12-07T09:50:57;17.98;;;9.32;;
71610;SDS011;59459;51.172;6.682;2022-12-07T09:53:36;25.63;;;10.82;;
71610;SDS011;59459;51.172;6.682;2022-12-07T09:56:05;22.80;;;11.80;;
71610;SDS011;59459;51.172;6.682;2022-12-07T09:58:33;21.23;;;9.73;;
71610;SDS011;59459;51.172;6.682;2022-12-07T10:01:24;21.48;;;9.52;;
71610;SDS011;59459;51.172;6.682;2022-12-07T10:03:59;19.37;;;9.13;;
71610;SDS011;59459;51.172;6.682;2022-12-07T10:06:26;19.92;;;8.95;;
71610;SDS011;59459;51.172;6.682;2022-12-07T10:08:51;20.33;;;10.37;;
71610;SDS011;59459;51.172;6.682;2022-12-07T10:11:16;20.23;;;8.47;;
71610;SDS011;59459;51.172;6.682;2022-12-07T10:14:10;21.30;;;9.77;;
71610;SDS011;59459;51.172;6.682;2022-12-07T10:18:59;18.23;;;8.63;;
71610;SDS011;59459;51.172;6.682;2022-12-07T10:21:42;20.98;;;9.35;;
71610;SDS011;59459;51.172;6.682;2022-12-07T10:24:23;20.40;;;9.13;;
71610;SDS011;59459;51.172;6.682;2022-12-07T10:26:52;20.23;;;8.53;;
71610;SDS011;59459;51.172;6.682;2022-12-07T10:31:43;17.07;;;8.60;;
71610;SDS011;59459;51.172;6.682;2022-12-07T10:34:20;17.90;;;8.32;;
71610;SDS011;59459;51.172;6.682;2022-12-07T10:36:49;17.58;;;7.68;;
71610;SDS011;59459;51.172;6.682;2022-12-07T10:39:15;18.70;;;8.47;;
71610;SDS011;59459;51.172;6.682;2022-12-07T10:44:22;16.65;;;7.63;;
71610;SDS011;59459;51.172;6.682;2022-12-07T10:46:54;18.20;;;7.97;;
71610;SDS011;59459;51.172;6.682;2022-12-07T10:59:57;18.15;;;8.35;;
71610;SDS011;59459;51.172;6.682;2022-12-07T11:05:27;18.00;;;7.53;;
71610;SDS011;59459;51.172;6.682;2022-12-07T11:26:02;18.55;;;7.95;;
71610;SDS011;59459;51.172;6.682;2022-12-07T11:33:40;15.57;;;7.07;;
71610;SDS011;59459;51.172;6.682;2022-12-07T11:38:53;17.03;;;9.03;;
71610;SDS011;59459;51.172;6.682;2022-12-07T11:41:34;21.25;;;8.98;;
71610;SDS011;59459;51.172;6.682;2022-12-07T11:44:20;19.75;;;9.75;;
71610;SDS011;59459;51.172;6.682;2022-12-07T11:47:02;21.13;;;10.45;;
71610;SDS011;59459;51.172;6.682;2022-12-07T11:49:37;22.40;;;11.23;;
71610;SDS011;59459;51.172;6.682;2022-12-07T11:52:11;20.63;;;10.50;;
71610;SDS011;59459;51.172;6.682;2022-12-07T11:54:48;20.65;;;10.65;;
71610;SDS011;59459;51.172;6.682;2022-12-07T11:58:00;23.33;;;10.38;;
71610;SDS011;59459;51.172;6.682;2022-12-07T12:00:16;16.63;;;8.60;;
71610;SDS011;59459;51.172;6.682;2022-12-07T12:02:48;20.20;;;9.35;;
71610;SDS011;59459;51.172;6.682;2022-12-07T12:05:16;17.73;;;8.63;;
71610;SDS011;59459;51.172;6.682;2022-12-07T12:07:42;18.67;;;8.23;;
71610;SDS011;59459;51.172;6.682;2022-12-07T12:10:16;18.55;;;9.18;;
71610;SDS011;59459;51.172;6.682;2022-12-07T12:20:55;11.50;;;5.20;;
71610;SDS011;59459;51.172;6.682;2022-12-07T12:23:36;10.90;;;4.40;;
71610;SDS011;59459;51.172;6.682;2022-12-07T12:26:05;11.68;;;4.00;;
71610;SDS011;59459;51.172;6.682;2022-12-07T12:31:34;11.17;;;4.37;;
71610;SDS011;59459;51.172;6.682;2022-12-07T12:34:02;12.75;;;4.30;;
71610;SDS011;59459;51.172;6.682;2022-12-07T12:44:08;9.32;;;3.20;;
71610;SDS011;59459;51.172;6.682;2022-12-07T12:46:55;9.13;;;2.95;;
71610;SDS011;59459;51.172;6.682;2022-12-07T12:54:22;9.43;;;3.20;;
71610;SDS011;59459;51.172;6.682;2022-12-07T13:04:58;11.50;;;3.58;;
71610;SDS011;59459;51.172;6.682;2022-12-07T13:12:57;8.20;;;3.15;;
71610;SDS011;59459;51.172;6.682;2022-12-07T13:17:58;9.25;;;3.75;;
71610;SDS011;59459;51.172;6.682;2022-12-07T13:23:08;8.00;;;2.83;;
71610;SDS011;59459;51.172;6.682;2022-12-07T13:25:36;7.75;;;3.17;;
71610;SDS011;59459;51.172;6.682;2022-12-07T13:28:09;9.98;;;3.40;;
71610;SDS011;59459;51.172;6.682;2022-12-07T13:30:40;9.20;;;3.22;;
71610;SDS011;59459;51.172;6.682;2022-12-07T13:33:08;13.27;;;3.57;;
71610;SDS011;59459;51.172;6.682;2022-12-07T13:35:36;8.15;;;3.10;;
71610;SDS011;59459;51.172;6.682;2022-12-07T13:38:03;9.35;;;3.58;;
71610;SDS011;59459;51.172;6.682;2022-12-07T13:40:30;10.07;;;3.83;;
71610;SDS011;59459;51.172;6.682;2022-12-07T13:42:59;10.23;;;3.53;;
71610;SDS011;59459;51.172;6.682;2022-12-07T13:45:29;10.95;;;3.33;;
71610;SDS011;59459;51.172;6.682;2022-12-07T13:48:19;8.97;;;2.93;;
71610;SDS011;59459;51.172;6.682;2022-12-07T13:50:52;12.43;;;2.83;;
71610;SDS011;59459;51.172;6.682;2022-12-07T13:53:17;10.88;;;3.58;;
71610;SDS011;59459;51.172;6.682;2022-12-07T13:55:46;11.87;;;4.33;;
71610;SDS011;59459;51.172;6.682;2022-12-07T13:58:12;10.00;;;3.50;;
71610;SDS011;59459;51.172;6.682;2022-12-07T14:00:37;8.40;;;3.20;;
71610;SDS011;59459;51.172;6.682;2022-12-07T14:03:20;8.32;;;3.40;;
71610;SDS011;59459;51.172;6.682;2022-12-07T14:06:02;8.48;;;3.38;;
71610;SDS011;59459;51.172;6.682;2022-12-07T14:08:29;9.48;;;3.55;;
71610;SDS011;59459;51.172;6.682;2022-12-07T14:10:55;8.07;;;2.70;;
71610;SDS011;59459;51.172;6.682;2022-12-07T14:13:31;9.07;;;2.80;;
71610;SDS011;59459;51.172;6.682;2022-12-07T14:15:59;9.38;;;3.05;;
71610;SDS011;59459;51.172;6.682;2022-12-07T14:18:40;10.40;;;3.80;;
71610;SDS011;59459;51.172;6.682;2022-12-07T14:21:21;8.80;;;3.30;;
71610;SDS011;59459;51.172;6.682;2022-12-07T14:24:10;8.45;;;3.22;;
71610;SDS011;59459;51.172;6.682;2022-12-07T14:26:37;11.35;;;2.78;;
71610;SDS011;59459;51.172;6.682;2022-12-07T14:29:19;9.38;;;2.80;;
71610;SDS011;59459;51.172;6.682;2022-12-07T14:31:44;8.15;;;2.88;;
71610;SDS011;59459;51.172;6.682;2022-12-07T14:34:12;16.03;;;3.27;;
71610;SDS011;59459;51.172;6.682;2022-12-07T14:36:38;11.27;;;3.23;;
71610;SDS011;59459;51.172;6.682;2022-12-07T14:39:03;8.13;;;2.70;;
71610;SDS011;59459;51.172;6.682;2022-12-07T14:41:28;8.27;;;3.00;;
71610;SDS011;59459;51.172;6.682;2022-12-07T14:44:12;10.87;;;4.23;;
71610;SDS011;59459;51.172;6.682;2022-12-07T14:46:37;13.02;;;3.38;;
71610;SDS011;59459;51.172;6.682;2022-12-07T14:49:02;10.10;;;3.77;;
71610;SDS011;59459;51.172;6.682;2022-12-07T14:51:28;14.47;;;5.97;;
71610;SDS011;59459;51.172;6.682;2022-12-07T14:53:53;11.53;;;5.60;;
71610;SDS011;59459;51.172;6.682;2022-12-07T14:56:18;16.63;;;6.70;;
71610;SDS011;59459;51.172;6.682;2022-12-07T14:58:43;18.40;;;8.10;;
71610;SDS011;59459;51.172;6.682;2022-12-07T15:01:09;16.27;;;7.77;;
71610;SDS011;59459;51.172;6.682;2022-12-07T15:03:34;18.50;;;8.87;;
71610;SDS011;59459;51.172;6.682;2022-12-07T15:05:59;16.97;;;8.20;;
71610;SDS011;59459;51.172;6.682;2022-12-07T15:08:25;15.98;;;8.02;;
71610;SDS011;59459;51.172;6.682;2022-12-07T15:10:50;19.67;;;8.10;;
71610;SDS011;59459;51.172;6.682;2022-12-07T15:13:15;14.60;;;6.93;;
71610;SDS011;59459;51.172;6.682;2022-12-07T15:15:59;15.07;;;6.88;;
71610;SDS011;59459;51.172;6.682;2022-12-07T15:18:24;16.77;;;6.97;;
71610;SDS011;59459;51.172;6.682;2022-12-07T15:20:50;13.17;;;6.03;;
71610;SDS011;59459;51.172;6.682;2022-12-07T15:23:16;14.73;;;6.80;;
71610;SDS011;59459;51.172;6.682;2022-12-07T15:25:41;15.07;;;5.97;;
71610;SDS011;59459;51.172;6.682;2022-12-07T15:28:07;12.93;;;6.27;;
71610;SDS011;59459;51.172;6.682;2022-12-07T15:30:32;17.43;;;5.47;;
71610;SDS011;59459;51.172;6.682;2022-12-07T15:32:57;13.10;;;4.93;;
71610;SDS011;59459;51.172;6.682;2022-12-07T15:35:23;14.73;;;5.33;;
71610;SDS011;59459;51.172;6.682;2022-12-07T15:37:48;10.33;;;4.40;;
71610;SDS011;59459;51.172;6.682;2022-12-07T15:40:13;10.77;;;4.17;;
71610;SDS011;59459;51.172;6.682;2022-12-07T15:42:38;11.13;;;4.27;;
71610;SDS011;59459;51.172;6.682;2022-12-07T15:45:04;12.80;;;4.65;;
71610;SDS011;59459;51.172;6.682;2022-12-07T15:47:31;11.13;;;4.77;;
71610;SDS011;59459;51.172;6.682;2022-12-07T15:49:56;13.77;;;5.53;;
71610;SDS011;59459;51.172;6.682;2022-12-07T15:52:21;12.97;;;5.17;;
71610;SDS011;59459;51.172;6.682;2022-12-07T15:54:47;12.83;;;4.60;;
71610;SDS011;59459;51.172;6.682;2022-12-07T15:57:12;13.57;;;5.63;;
71610;SDS011;59459;51.172;6.682;2022-12-07T15:59:37;12.75;;;5.63;;
71610;SDS011;59459;51.172;6.682;2022-12-07T16:02:03;13.20;;;5.23;;
71610;SDS011;59459;51.172;6.682;2022-12-07T16:04:28;13.60;;;5.90;;
71610;SDS011;59459;51.172;6.682;2022-12-07T16:06:54;14.85;;;5.55;;
71610;SDS011;59459;51.172;6.682;2022-12-07T16:09:19;15.63;;;6.13;;
71610;SDS011;59459;51.172;6.682;2022-12-07T16:11:45;14.97;;;6.30;;
71610;SDS011;59459;51.172;6.682;2022-12-07T16:14:10;13.97;;;6.40;;
71610;SDS011;59459;51.172;6.682;2022-12-07T16:16:36;15.73;;;6.30;;
71610;SDS011;59459;51.172;6.682;2022-12-07T16:19:01;16.47;;;7.10;;
71610;SDS011;59459;51.172;6.682;2022-12-07T16:21:27;14.67;;;6.40;;
71610;SDS011;59459;51.172;6.682;2022-12-07T16:23:52;17.30;;;6.63;;
71610;SDS011;59459;51.172;6.682;2022-12-07T16:26:19;15.63;;;6.63;;
71610;SDS011;59459;51.172;6.682;2022-12-07T16:28:45;18.25;;;6.97;;
71610;SDS011;59459;51.172;6.682;2022-12-07T16:31:11;16.63;;;8.00;;